createdAt,value
2022-11-29T00:00:36.495Z,98159.53
2022-11-29T00:01:39.602Z,98159.53
2022-11-29T00:02:41.090Z,98152.88
2022-11-29T00:03:42.647Z,98153.97
2022-11-29T00:04:44.721Z,98161.81
2022-11-29T00:05:46.374Z,98146.13
2022-11-29T00:06:48.197Z,98151.78
2022-11-29T00:07:49.697Z,98150.72
2022-11-29T00:08:51.117Z,98159.00
2022-11-29T00:09:52.527Z,98148.53
2022-11-29T00:10:53.932Z,98145.91
2022-11-29T00:12:13.557Z,98145.91
2022-11-29T00:13:15.099Z,98144.28
2022-11-29T00:14:19.090Z,98149.50
2022-11-29T00:15:20.568Z,98154.59
2022-11-29T00:16:22.072Z,98152.44
2022-11-29T00:17:23.555Z,98142.28
2022-11-29T00:18:24.956Z,98144.34
2022-11-29T00:19:26.435Z,98141.31
2022-11-29T00:20:27.891Z,98137.47
2022-11-29T00:21:29.758Z,98143.03
2022-11-29T00:22:31.167Z,98147.38
2022-11-29T00:23:32.740Z,98147.25
2022-11-29T00:24:34.631Z,98147.16
2022-11-29T00:25:38.316Z,98143.13
2022-11-29T00:26:40.263Z,98141.38
2022-11-29T00:27:41.683Z,98141.53
2022-11-29T00:28:43.151Z,98139.34
2022-11-29T00:29:44.585Z,98143.47
2022-11-29T00:30:46.399Z,98145.03
2022-11-29T00:31:47.976Z,98137.94
2022-11-29T00:32:49.390Z,98141.75
2022-11-29T00:33:51.667Z,98139.88
2022-11-29T00:34:53.158Z,98134.97
2022-11-29T00:35:54.907Z,98143.59
2022-11-29T00:36:56.377Z,98137.25
2022-11-29T00:37:57.898Z,98142.97
2022-11-29T00:38:59.407Z,98140.00
2022-11-29T00:40:00.803Z,98143.72
2022-11-29T00:41:02.616Z,98141.09
2022-11-29T00:42:04.204Z,98144.81
2022-11-29T00:43:05.694Z,98137.72
2022-11-29T00:44:07.386Z,98140.75
2022-11-29T00:45:09.476Z,98145.38
2022-11-29T00:46:11.794Z,98134.13
2022-11-29T00:47:13.315Z,98139.69
2022-11-29T00:48:14.787Z,98141.22
2022-11-29T00:49:16.585Z,98145.66
2022-11-29T00:50:18.076Z,98141.53
2022-11-29T00:51:19.900Z,98143.38
2022-11-29T00:52:21.336Z,98146.34
2022-11-29T00:53:22.858Z,98142.50
2022-11-29T00:54:24.383Z,98142.50
2022-11-29T00:55:25.861Z,98138.81
2022-11-29T00:56:27.722Z,98141.31
2022-11-29T00:57:29.152Z,98138.81
2022-11-29T00:58:30.924Z,98143.25
2022-11-29T00:59:32.324Z,98135.88
2022-11-29T01:00:34.087Z,98143.38
2022-11-29T01:01:35.669Z,98138.16
2022-11-29T01:02:37.191Z,98137.81
2022-11-29T01:03:38.941Z,98135.19
2022-11-29T01:04:40.421Z,98135.66
2022-11-29T01:05:43.497Z,98130.44
2022-11-29T01:06:45.049Z,98135.66
2022-11-29T01:07:46.634Z,98133.59
2022-11-29T01:08:48.247Z,98138.19
2022-11-29T01:09:49.729Z,98132.63
2022-11-29T01:11:01.831Z,98136.00
2022-11-29T01:12:03.417Z,98131.97
2022-11-29T01:13:05.251Z,98132.94
2022-11-29T01:14:06.912Z,98132.63
2022-11-29T01:15:09.369Z,98133.59
2022-11-29T01:16:11.945Z,98130.84
2022-11-29T01:17:13.518Z,98129.31
2022-11-29T01:18:15.506Z,98134.00
2022-11-29T01:19:16.896Z,98132.38
2022-11-29T01:20:18.320Z,98135.75
2022-11-29T01:21:23.339Z,98134.22
2022-11-29T01:22:24.807Z,98128.66
2022-11-29T01:23:27.252Z,98128.34
2022-11-29T01:24:30.504Z,98133.13
2022-11-29T01:25:32.548Z,98129.41
2022-11-29T01:26:33.989Z,98140.66
2022-11-29T01:27:35.507Z,98132.78
2022-11-29T01:28:38.072Z,98129.41
2022-11-29T01:29:39.570Z,98133.88
2022-11-29T01:30:41.325Z,98135.09
2022-11-29T01:31:42.862Z,98128.78
2022-11-29T01:32:44.391Z,98132.91
2022-11-29T01:33:46.101Z,98128.91
2022-11-29T01:34:47.552Z,98133.81
2022-11-29T01:35:54.666Z,98131.19
2022-11-29T01:36:56.110Z,98133.81
2022-11-29T01:37:57.530Z,98135.53
2022-11-29T01:39:00.899Z,98131.81
2022-11-29T01:40:02.464Z,98131.06
2022-11-29T01:41:08.074Z,98134.34
2022-11-29T01:42:13.755Z,98133.25
2022-11-29T01:43:17.337Z,98128.34
2022-11-29T01:44:18.708Z,98136.19
2022-11-29T01:45:24.508Z,98132.03
2022-11-29T01:46:28.181Z,98132.38
2022-11-29T01:47:30.666Z,98129.75
2022-11-29T01:48:32.745Z,98126.03
2022-11-29T01:49:38.322Z,98127.47
2022-11-29T01:50:41.110Z,98128.22
2022-11-29T01:51:49.873Z,98137.94
2022-11-29T01:52:51.662Z,98130.38
2022-11-29T01:53:54.287Z,98129.19
2022-11-29T01:55:00.319Z,98136.38
2022-11-29T01:56:05.592Z,98125.16
2022-11-29T01:57:08.750Z,98132.25
2022-11-29T01:58:10.293Z,98126.72
2022-11-29T01:59:15.758Z,98136.72
2022-11-29T02:00:19.325Z,98129.63
2022-11-29T02:01:20.865Z,98133.34
2022-11-29T02:02:30.469Z,98128.09
2022-11-29T02:03:32.316Z,98128.88
2022-11-29T02:04:35.641Z,98128.09
2022-11-29T02:05:40.744Z,98128.09
2022-11-29T02:06:43.120Z,98129.19
2022-11-29T02:07:48.695Z,98125.81
2022-11-29T02:08:50.218Z,98130.28
2022-11-29T02:09:51.672Z,98130.38
2022-11-29T02:10:55.993Z,98130.09
2022-11-29T02:12:39.224Z,98127.13
2022-11-29T02:14:00.263Z,98134.22
2022-11-29T02:15:24.578Z,98122.66
2022-11-29T02:16:56.404Z,98125.63
2022-11-29T02:18:17.773Z,98126.72
2022-11-29T02:19:55.042Z,98124.28
2022-11-29T02:21:19.785Z,98128.75
2022-11-29T02:22:42.929Z,98122.31
2022-11-29T02:24:08.872Z,98122.75
2022-11-29T02:25:41.455Z,98128.94
2022-11-29T02:26:54.942Z,98134.63
2022-11-29T02:28:12.009Z,98126.78
2022-11-29T02:29:37.574Z,98123.41
2022-11-29T02:30:44.735Z,98127.75
2022-11-29T02:32:23.770Z,98128.66
2022-11-29T02:33:28.204Z,98126.34
2022-11-29T02:35:02.570Z,98129.72
2022-11-29T02:36:31.461Z,98129.06
2022-11-29T02:38:01.001Z,98133.22
2022-11-29T02:39:25.084Z,98131.69
2022-11-29T02:40:54.736Z,98129.41
2022-11-29T02:42:28.428Z,98137.56
2022-11-29T02:43:57.854Z,98126.66
2022-11-29T02:45:12.126Z,98129.84
2022-11-29T02:46:53.633Z,98122.44
2022-11-29T02:48:10.852Z,98128.09
2022-11-29T02:49:35.196Z,98129.97
2022-11-29T02:50:54.968Z,98131.47
2022-11-29T02:52:07.855Z,98130.38
2022-11-29T02:53:27.425Z,98121.47
2022-11-29T02:54:47.271Z,98127.91
2022-11-29T02:56:07.421Z,98127.78
2022-11-29T02:57:26.118Z,98129.19
2022-11-29T02:58:55.491Z,98125.38
2022-11-29T03:00:06.568Z,98130.59
2022-11-29T03:01:31.848Z,98130.72
2022-11-29T03:02:43.250Z,98133.00
2022-11-29T03:03:54.815Z,98134.56
2022-11-29T03:05:20.123Z,98134.56
2022-11-29T03:06:27.193Z,98133.47
2022-11-29T03:07:37.826Z,98134.97
2022-11-29T03:08:56.059Z,98140.66
2022-11-29T03:10:06.343Z,98138.03
2022-11-29T03:11:45.163Z,98140.66
2022-11-29T03:12:49.931Z,98141.75
2022-11-29T03:14:24.083Z,98140.97
2022-11-29T03:15:41.449Z,98139.88
2022-11-29T03:16:59.004Z,98152.19
2022-11-29T03:18:19.300Z,98142.06
2022-11-29T03:19:29.756Z,98150.34
2022-11-29T03:20:43.876Z,98149.72
2022-11-29T03:21:55.429Z,98152.31
2022-11-29T03:23:10.314Z,98146.66
2022-11-29T03:24:23.554Z,98150.03
2022-11-29T03:25:41.470Z,98151.56
2022-11-29T03:26:49.345Z,98154.19
2022-11-29T03:27:56.082Z,98147.09
2022-11-29T03:29:12.316Z,98153.09
2022-11-29T03:30:17.064Z,98153.41
2022-11-29T03:31:29.581Z,98154.94
2022-11-29T03:32:50.240Z,98159.09
2022-11-29T03:33:56.053Z,98154.72
2022-11-29T03:35:16.872Z,98156.59
2022-11-29T03:36:53.024Z,98150.03
2022-11-29T03:38:04.106Z,98156.13
2022-11-29T03:39:11.057Z,98151.69
2022-11-29T03:40:24.412Z,98153.53
2022-11-29T03:41:38.124Z,98160.31
2022-11-29T03:42:51.622Z,98160.31
2022-11-29T03:44:24.038Z,98162.59
2022-11-29T03:45:37.051Z,98158.75
2022-11-29T03:46:54.573Z,98168.16
2022-11-29T03:48:10.786Z,98168.16
2022-11-29T03:49:21.812Z,98163.22
2022-11-29T03:50:37.943Z,98163.22
2022-11-29T03:52:03.963Z,98162.78
2022-11-29T03:53:20.576Z,98165.06
2022-11-29T03:54:43.505Z,98162.91
2022-11-29T03:55:58.696Z,98158.44
2022-11-29T03:57:00.562Z,98165.19
2022-11-29T03:58:08.351Z,98149.50
2022-11-29T03:59:58.072Z,98158.56
2022-11-29T04:01:21.172Z,98162.72
2022-11-29T04:02:47.704Z,98158.56
2022-11-29T04:04:26.730Z,98156.72
2022-11-29T04:05:58.693Z,98166.84
2022-11-29T04:07:27.805Z,98161.63
2022-11-29T04:08:44.821Z,98165.44
2022-11-29T04:09:46.383Z,98165.88
2022-11-29T04:11:05.425Z,98159.88
2022-11-29T04:12:32.220Z,98164.34
2022-11-29T04:13:52.471Z,98163.25
2022-11-29T04:15:15.465Z,98162.16
2022-11-29T04:16:46.041Z,98163.69
2022-11-29T04:18:20.433Z,98171.00
2022-11-29T04:19:34.554Z,98164.22
2022-11-29T04:20:51.206Z,98166.09
2022-11-29T04:22:15.845Z,98162.38
2022-11-29T04:23:52.974Z,98162.03
2022-11-29T04:25:13.933Z,98167.28
2022-11-29T04:26:43.373Z,98161.28
2022-11-29T04:28:19.862Z,98160.66
2022-11-29T04:29:32.000Z,98168.91
2022-11-29T04:30:42.930Z,98162.94
2022-11-29T04:32:14.436Z,98170.78
2022-11-29T04:33:40.700Z,98171.53
2022-11-29T04:34:59.287Z,98163.69
2022-11-29T04:36:26.700Z,98171.53
2022-11-29T04:37:43.269Z,98163.59
2022-11-29T04:38:54.025Z,98166.50
2022-11-29T04:40:16.837Z,98173.31
2022-11-29T04:42:00.313Z,98168.50
2022-11-29T04:43:15.269Z,98174.16
2022-11-29T04:44:47.723Z,98176.00
2022-11-29T04:46:11.814Z,98177.88
2022-11-29T04:47:51.997Z,98172.50
2022-11-29T04:49:23.566Z,98177.09
2022-11-29T04:50:25.082Z,98180.59
2022-11-29T04:51:48.258Z,98180.59
2022-11-29T04:53:01.773Z,98179.84
2022-11-29T04:54:31.184Z,98182.25
2022-11-29T04:55:49.605Z,98183.03
2022-11-29T04:56:58.473Z,98182.25
2022-11-29T04:58:33.856Z,98186.41
2022-11-29T04:59:51.966Z,98191.28
2022-11-29T05:01:15.260Z,98190.88
2022-11-29T05:02:40.899Z,98187.81
2022-11-29T05:03:56.878Z,98186.28
2022-11-29T05:05:21.566Z,98188.88
2022-11-29T05:07:02.977Z,98184.31
2022-11-29T05:08:23.702Z,98186.47
2022-11-29T05:10:00.890Z,98188.34
2022-11-29T05:11:31.924Z,98188.78
2022-11-29T05:12:53.543Z,98191.84
2022-11-29T05:14:32.572Z,98194.88
2022-11-29T05:15:49.224Z,98206.03
2022-11-29T05:17:01.440Z,98194.78
2022-11-29T05:18:15.838Z,98203.41
2022-11-29T05:19:28.785Z,98194.13
2022-11-29T05:20:55.142Z,98202.31
2022-11-29T05:22:12.879Z,98202.31
2022-11-29T05:23:45.026Z,98197.06
2022-11-29T05:24:54.162Z,98201.53
2022-11-29T05:26:04.681Z,98199.69
2022-11-29T05:27:43.674Z,98205.69
2022-11-29T05:28:48.156Z,98201.97
2022-11-29T05:30:05.014Z,98211.81
2022-11-29T05:31:18.569Z,98211.06
2022-11-29T05:32:47.444Z,98207.34
2022-11-29T05:34:15.838Z,98206.56
2022-11-29T05:35:39.123Z,98207.34
2022-11-29T05:36:54.606Z,98203.63
2022-11-29T05:38:32.345Z,98216.28
2022-11-29T05:39:46.322Z,98213.53
2022-11-29T05:40:59.929Z,98211.69
2022-11-29T05:42:10.420Z,98217.69
2022-11-29T05:43:23.324Z,98211.69
2022-11-29T05:44:34.746Z,98212.44
2022-11-29T05:45:48.169Z,98214.31
2022-11-29T05:46:57.263Z,98209.53
2022-11-29T05:48:07.574Z,98217.03
2022-11-29T05:49:37.623Z,98218.13
2022-11-29T05:51:33.736Z,98210.59
2022-11-29T05:52:59.377Z,98217.38
2022-11-29T05:54:15.871Z,98216.91
2022-11-29T05:55:27.223Z,98226.63
2022-11-29T05:57:06.306Z,98222.50
2022-11-29T05:58:17.592Z,98222.16
2022-11-29T05:59:23.740Z,98230.13
2022-11-29T06:00:30.641Z,98219.66
2022-11-29T06:02:00.533Z,98230.91
2022-11-29T06:03:23.769Z,98230.13
2022-11-29T06:04:42.935Z,98228.16
2022-11-29T06:05:51.738Z,98226.28
2022-11-29T06:07:03.103Z,98225.66
2022-11-29T06:08:25.617Z,98229.69
2022-11-29T06:09:32.537Z,98231.88
2022-11-29T06:10:42.058Z,98224.78
2022-11-29T06:11:52.781Z,98230.78
2022-11-29T06:13:32.034Z,98224.47
2022-11-29T06:14:49.082Z,98230.00
2022-11-29T06:16:18.313Z,98231.88
2022-11-29T06:17:38.842Z,98239.72
2022-11-29T06:18:48.408Z,98223.69
2022-11-29T06:20:23.671Z,98237.09
2022-11-29T06:21:45.109Z,98236.34
2022-11-29T06:22:55.874Z,98238.19
2022-11-29T06:24:26.372Z,98240.47
2022-11-29T06:25:39.279Z,98244.63
2022-11-29T06:27:29.012Z,98246.47
2022-11-29T06:28:47.527Z,98241.69
2022-11-29T06:29:59.779Z,98249.22
2022-11-29T06:31:25.341Z,98242.13
2022-11-29T06:32:52.124Z,98249.22
2022-11-29T06:34:10.146Z,98248.44
2022-11-29T06:35:35.450Z,98251.06
2022-11-29T06:36:57.051Z,98250.75
2022-11-29T06:38:01.545Z,98253.06
2022-11-29T06:39:03.634Z,98250.53
2022-11-29T06:40:09.957Z,98257.63
2022-11-29T06:41:29.859Z,98250.53
2022-11-29T06:42:31.354Z,98251.28
2022-11-29T06:43:33.649Z,98251.00
2022-11-29T06:44:35.709Z,98252.50
2022-11-29T06:45:37.537Z,98257.75
2022-11-29T06:46:51.606Z,98256.22
2022-11-29T06:47:59.852Z,98255.13
2022-11-29T06:49:25.861Z,98260.03
2022-11-29T06:50:36.208Z,98257.41
2022-11-29T06:51:47.419Z,98265.94
2022-11-29T06:53:14.842Z,98263.31
2022-11-29T06:54:34.795Z,98260.38
2022-11-29T06:56:03.528Z,98261.97
2022-11-29T06:57:25.286Z,98263.28
2022-11-29T06:58:40.930Z,98270.22
2022-11-29T06:59:48.480Z,98265.75
2022-11-29T07:01:01.962Z,98268.50
2022-11-29T07:02:21.984Z,98269.41
2022-11-29T07:03:48.314Z,98264.59
2022-11-29T07:05:24.511Z,98271.03
2022-11-29T07:06:28.353Z,98274.09
2022-11-29T07:07:30.311Z,98268.56
2022-11-29T07:08:32.030Z,98271.59
2022-11-29T07:09:35.483Z,98280.69
2022-11-29T07:10:39.383Z,98278.06
2022-11-29T07:11:41.546Z,98283.28
2022-11-29T07:12:44.588Z,98280.34
2022-11-29T07:13:46.073Z,98286.38
2022-11-29T07:14:47.965Z,98286.03
2022-11-29T07:16:07.960Z,98290.06
2022-11-29T07:17:55.401Z,98287.59
2022-11-29T07:19:21.729Z,98294.69
2022-11-29T07:20:26.250Z,98290.81
2022-11-29T07:21:48.446Z,98291.28
2022-11-29T07:23:26.937Z,98286.03
2022-11-29T07:24:55.752Z,98285.75
2022-11-29T07:26:03.205Z,98289.88
2022-11-29T07:27:23.090Z,98285.41
2022-11-29T07:28:46.454Z,98294.78
2022-11-29T07:30:09.617Z,98289.13
2022-11-29T07:31:25.427Z,98294.34
2022-11-29T07:32:55.924Z,98300.78
2022-11-29T07:34:16.304Z,98297.09
2022-11-29T07:35:29.274Z,98295.25
2022-11-29T07:36:40.038Z,98298.16
2022-11-29T07:37:53.383Z,98300.03
2022-11-29T07:39:12.846Z,98297.41
2022-11-29T07:41:00.879Z,98299.25
2022-11-29T07:42:32.882Z,98295.25
2022-11-29T07:43:59.744Z,98300.03
2022-11-29T07:45:19.618Z,98300.34
2022-11-29T07:46:21.188Z,98299.59
2022-11-29T07:47:22.648Z,98301.44
2022-11-29T07:48:24.246Z,98304.50
2022-11-29T07:49:25.697Z,98301.13
2022-11-29T07:50:28.367Z,98301.88
2022-11-29T07:51:31.298Z,98298.16
2022-11-29T07:52:33.526Z,98298.97
2022-11-29T07:53:41.053Z,98307.56
2022-11-29T07:54:42.746Z,98306.16
2022-11-29T07:55:45.185Z,98302.00
2022-11-29T07:56:46.885Z,98304.63
2022-11-29T07:57:49.356Z,98304.75
2022-11-29T07:58:50.862Z,98304.00
2022-11-29T07:59:52.318Z,98309.97
2022-11-29T08:00:54.168Z,98307.78
2022-11-29T08:01:55.638Z,98299.94
2022-11-29T08:02:57.130Z,98308.25
2022-11-29T08:03:58.653Z,98312.91
2022-11-29T08:05:01.707Z,98311.72
2022-11-29T08:06:03.757Z,98305.38
2022-11-29T08:07:05.158Z,98306.91
2022-11-29T08:08:09.912Z,98314.75
2022-11-29T08:09:11.408Z,98313.66
2022-11-29T08:10:15.302Z,98311.06
2022-11-29T08:11:16.717Z,98318.59
2022-11-29T08:12:18.206Z,98313.78
2022-11-29T08:13:21.213Z,98313.03
2022-11-29T08:14:22.591Z,98322.00
2022-11-29T08:15:25.208Z,98320.88
2022-11-29T08:16:26.959Z,98322.41
2022-11-29T08:17:28.651Z,98318.59
2022-11-29T08:18:30.086Z,98322.41
2022-11-29T08:19:31.528Z,98325.16
2022-11-29T08:20:33.387Z,98320.38
2022-11-29T08:21:34.801Z,98313.28
2022-11-29T08:22:36.632Z,98321.91
2022-11-29T08:23:38.080Z,98322.22
2022-11-29T08:24:39.559Z,98327.16
2022-11-29T08:25:41.382Z,98321.56
2022-11-29T08:26:42.812Z,98320.47
2022-11-29T08:27:44.222Z,98324.63
2022-11-29T08:28:46.158Z,98325.41
2022-11-29T08:29:47.554Z,98331.06
2022-11-29T08:30:49.012Z,98321.69
2022-11-29T08:31:53.358Z,98332.59
2022-11-29T08:32:55.175Z,98329.69
2022-11-29T08:33:56.726Z,98335.97
2022-11-29T08:34:58.363Z,98334.13
2022-11-29T08:36:08.511Z,98331.19
2022-11-29T08:37:09.946Z,98337.97
2022-11-29T08:38:11.395Z,98334.59
2022-11-29T08:39:12.889Z,98330.44
2022-11-29T08:40:15.447Z,98334.59
2022-11-29T08:41:17.422Z,98336.56
2022-11-29T08:42:18.881Z,98336.56
2022-11-29T08:43:20.307Z,98328.72
2022-11-29T08:44:21.822Z,98341.47
2022-11-29T08:45:23.643Z,98338.09
2022-11-29T08:46:45.080Z,98342.25
2022-11-29T08:47:46.464Z,98337.75
2022-11-29T08:48:48.343Z,98342.25
2022-11-29T08:50:01.738Z,98343.75
2022-11-29T08:51:05.127Z,98340.81
2022-11-29T08:52:35.783Z,98342.66
2022-11-29T08:53:43.490Z,98345.94
2022-11-29T08:54:45.232Z,98343.34
2022-11-29T08:55:46.980Z,98343.75
2022-11-29T08:58:12.218Z,98346.84
2022-11-29T08:59:13.618Z,98347.59
2022-11-29T09:00:15.848Z,98346.16
2022-11-29T09:01:19.197Z,98347.69
2022-11-29T09:02:20.661Z,98349.88
2022-11-29T09:03:40.807Z,98348.03
2022-11-29T09:04:42.312Z,98346.16
2022-11-29T09:05:43.942Z,98350.78
2022-11-29T09:06:45.387Z,98356.78
2022-11-29T09:07:46.996Z,98354.16
2022-11-29T09:08:48.494Z,98355.25
2022-11-29T09:09:50.047Z,98358.31
2022-11-29T09:10:51.584Z,98360.91
2022-11-29T09:11:53.020Z,98364.00
2022-11-29T09:12:54.996Z,98361.03
2022-11-29T09:13:59.356Z,98353.94
2022-11-29T09:15:00.931Z,98361.47
2022-11-29T09:16:07.730Z,98356.13
2022-11-29T09:17:09.255Z,98358.75
2022-11-29T09:18:10.786Z,98364.75
2022-11-29T09:19:14.398Z,98364.56
2022-11-29T09:20:19.206Z,98364.44
2022-11-29T09:21:20.775Z,98369.53
2022-11-29T09:22:22.248Z,98368.03
2022-11-29T09:23:23.677Z,98371.53
2022-11-29T09:24:25.286Z,98366.72
2022-11-29T09:25:27.659Z,98364.09
2022-11-29T09:26:32.036Z,98370.56
2022-11-29T09:27:33.473Z,98362.34
2022-11-29T09:28:35.462Z,98368.69
2022-11-29T09:29:36.967Z,98363.47
2022-11-29T09:30:38.459Z,98368.69
2022-11-29T09:31:40.010Z,98366.06
2022-11-29T09:32:41.507Z,98365.75
2022-11-29T09:33:43.271Z,98367.59
2022-11-29T09:34:44.977Z,98365.44
2022-11-29T09:35:47.559Z,98365.53
2022-11-29T09:36:49.068Z,98373.41
2022-11-29T09:37:50.558Z,98367.09
2022-11-29T09:38:52.042Z,98371.22
2022-11-29T09:39:53.522Z,98370.59
2022-11-29T09:40:57.622Z,98367.97
2022-11-29T09:42:23.926Z,98373.41
2022-11-29T09:43:43.206Z,98369.59
2022-11-29T09:44:53.394Z,98371.00
2022-11-29T09:46:22.212Z,98370.78
2022-11-29T09:47:26.374Z,98369.47
2022-11-29T09:48:40.482Z,98372.72
2022-11-29T09:49:58.846Z,98370.44
2022-11-29T09:51:27.220Z,98376.22
2022-11-29T09:52:36.735Z,98373.81
2022-11-29T09:53:58.238Z,98378.28
2022-11-29T09:55:04.903Z,98375.25
2022-11-29T09:56:19.261Z,98379.72
2022-11-29T09:57:23.858Z,98370.75
2022-11-29T09:58:31.281Z,98377.66
2022-11-29T09:59:42.759Z,98375.34
2022-11-29T10:00:49.438Z,98375.47
2022-11-29T10:01:56.698Z,98372.53
2022-11-29T10:03:09.777Z,98376.69
2022-11-29T10:04:17.581Z,98374.47
2022-11-29T10:05:28.518Z,98372.25
2022-11-29T10:06:38.711Z,98381.53
2022-11-29T10:07:56.639Z,98375.88
2022-11-29T10:09:01.523Z,98379.81
2022-11-29T10:10:09.233Z,98380.00
2022-11-29T10:11:30.358Z,98376.84
2022-11-29T10:12:37.869Z,98382.56
2022-11-29T10:13:45.694Z,98376.09
2022-11-29T10:14:57.949Z,98385.16
2022-11-29T10:16:09.329Z,98379.94
2022-11-29T10:17:26.895Z,98378.84
2022-11-29T10:18:38.362Z,98378.84
2022-11-29T10:19:47.475Z,98379.25
2022-11-29T10:20:52.727Z,98381.69
2022-11-29T10:22:00.792Z,98384.00
2022-11-29T10:23:09.815Z,98382.69
2022-11-29T10:24:17.804Z,98380.41
2022-11-29T10:25:28.763Z,98382.69
2022-11-29T10:26:35.035Z,98380.69
2022-11-29T10:27:40.187Z,98385.31
2022-11-29T10:28:50.289Z,98376.56
2022-11-29T10:29:51.884Z,98383.78
2022-11-29T10:30:55.608Z,98385.72
2022-11-29T10:31:59.290Z,98378.31
2022-11-29T10:33:00.934Z,98383.56
2022-11-29T10:34:12.847Z,98375.38
2022-11-29T10:35:18.042Z,98378.88
2022-11-29T10:36:29.638Z,98384.88
2022-11-29T10:37:32.861Z,98381.63
2022-11-29T10:38:34.295Z,98383.34
2022-11-29T10:39:42.317Z,98379.09
2022-11-29T10:40:48.814Z,98373.09
2022-11-29T10:41:55.007Z,98380.94
2022-11-29T10:42:57.042Z,98379.44
2022-11-29T10:44:00.085Z,98377.56
2022-11-29T10:45:02.234Z,98374.06
2022-11-29T10:46:05.170Z,98377.03
2022-11-29T10:47:10.639Z,98380.28
2022-11-29T10:48:22.021Z,98372.75
2022-11-29T10:49:27.714Z,98374.72
2022-11-29T10:50:31.980Z,98375.16
2022-11-29T10:51:33.792Z,98369.28
2022-11-29T10:52:35.595Z,98380.94
2022-11-29T10:53:37.515Z,98376.47
2022-11-29T10:54:42.414Z,98376.06
2022-11-29T10:55:48.187Z,98375.06
2022-11-29T10:56:49.868Z,98379.09
2022-11-29T10:58:13.010Z,98381.72
2022-11-29T10:59:29.593Z,98379.56
2022-11-29T11:00:31.130Z,98382.50
2022-11-29T11:01:36.976Z,98379.31
2022-11-29T11:02:38.666Z,98381.50
2022-11-29T11:04:00.737Z,98386.19
2022-11-29T11:05:03.638Z,98384.66
2022-11-29T11:06:08.454Z,98382.81
2022-11-29T11:07:23.580Z,98383.88
2022-11-29T11:08:26.572Z,98381.72
2022-11-29T11:09:48.596Z,98387.28
2022-11-29T11:11:01.165Z,98386.06
2022-11-29T11:12:18.812Z,98386.97
2022-11-29T11:13:25.748Z,98386.31
2022-11-29T11:14:37.530Z,98388.06
2022-11-29T11:15:39.048Z,98383.69
2022-11-29T11:16:40.570Z,98381.06
2022-11-29T11:17:55.795Z,98386.19
2022-11-29T11:18:58.441Z,98388.06
2022-11-29T11:20:04.416Z,98377.56
2022-11-29T11:21:10.950Z,98383.88
2022-11-29T11:22:22.070Z,98385.09
2022-11-29T11:23:37.562Z,98380.63
2022-11-29T11:24:44.838Z,98383.25
2022-11-29T11:25:50.281Z,98383.69
2022-11-29T11:26:51.852Z,98389.78
2022-11-29T11:27:54.669Z,98385.94
2022-11-29T11:28:59.573Z,98385.94
2022-11-29T11:30:04.012Z,98384.41
2022-11-29T11:31:08.819Z,98392.28
2022-11-29T11:32:20.519Z,98391.66
2022-11-29T11:33:26.900Z,98392.41
2022-11-29T11:34:34.254Z,98390.69
2022-11-29T11:35:37.555Z,98388.47
2022-11-29T11:36:38.982Z,98388.25
2022-11-29T11:37:40.451Z,98387.94
2022-11-29T11:38:52.438Z,98392.41
2022-11-29T11:39:57.304Z,98397.56
2022-11-29T11:41:05.431Z,98391.09
2022-11-29T11:42:31.067Z,98391.44
2022-11-29T11:43:34.084Z,98394.47
2022-11-29T11:44:47.520Z,98391.97
2022-11-29T11:45:54.533Z,98388.94
2022-11-29T11:46:56.558Z,98398.31
2022-11-29T11:48:02.060Z,98390.88
2022-11-29T11:49:23.914Z,98392.88
2022-11-29T11:50:32.831Z,98387.63
2022-11-29T11:51:34.298Z,98395.91
2022-11-29T11:52:48.876Z,98396.03
2022-11-29T11:53:57.323Z,98396.81
2022-11-29T11:55:02.043Z,98399.00
2022-11-29T11:56:12.974Z,98394.94
2022-11-29T11:57:19.225Z,98398.31
2022-11-29T11:58:27.551Z,98388.31
2022-11-29T11:59:29.380Z,98397.69
2022-11-29T12:01:04.361Z,98394.09
2022-11-29T12:02:29.528Z,98400.63
2022-11-29T12:03:39.556Z,98401.84
2022-11-29T12:04:41.409Z,98403.25
2022-11-29T12:05:46.237Z,98405.13
2022-11-29T12:06:59.906Z,98404.25
2022-11-29T12:08:08.502Z,98394.53
2022-11-29T12:09:48.112Z,98402.06
2022-11-29T12:10:54.221Z,98400.97
2022-11-29T12:12:03.675Z,98404.16
2022-11-29T12:13:05.238Z,98402.53
2022-11-29T12:14:07.973Z,98395.72
2022-11-29T12:15:31.728Z,98394.75
2022-11-29T12:16:38.902Z,98399.53
2022-11-29T12:17:51.555Z,98401.75
2022-11-29T12:19:00.858Z,98406.97
2022-11-29T12:20:26.232Z,98404.47
2022-11-29T12:21:33.638Z,98405.66
2022-11-29T12:22:47.879Z,98406.44
2022-11-29T12:24:05.842Z,98403.38
2022-11-29T12:25:15.270Z,98408.28
2022-11-29T12:26:54.825Z,98405.44
2022-11-29T12:27:41.962Z,98405.56
2022-11-29T12:28:45.052Z,98401.75
2022-11-29T12:29:46.582Z,98403.59
2022-11-29T12:31:13.040Z,98405.91
2022-11-29T12:32:25.064Z,98403.28
2022-11-29T12:34:20.969Z,98408.84
2022-11-29T12:35:44.732Z,98407.00
2022-11-29T12:37:10.739Z,98405.16
2022-11-29T12:39:09.151Z,98414.19
2022-11-29T12:40:10.560Z,98413.44
2022-11-29T12:41:53.805Z,98408.53
2022-11-29T12:43:01.374Z,98416.81
2022-11-29T12:44:15.645Z,98416.81
2022-11-29T12:45:22.990Z,98425.91
2022-11-29T12:46:28.119Z,98423.72
2022-11-29T12:47:51.917Z,98425.69
2022-11-29T12:49:17.668Z,98422.31
2022-11-29T12:50:44.202Z,98416.38
2022-11-29T12:52:06.254Z,98425.81
2022-11-29T12:53:36.986Z,98417.59
2022-11-29T12:54:38.379Z,98422.50
2022-11-29T12:56:07.501Z,98420.66
2022-11-29T12:57:22.940Z,98417.72
2022-11-29T12:58:41.351Z,98427.53
2022-11-29T13:00:18.205Z,98430.16
2022-11-29T13:01:19.632Z,98420.44
2022-11-29T13:02:52.280Z,98432.78
2022-11-29T13:04:13.279Z,98421.88
2022-11-29T13:05:22.620Z,98428.97
2022-11-29T13:06:46.099Z,98426.78
2022-11-29T13:08:09.891Z,98422.28
2022-11-29T13:09:34.065Z,98428.75
2022-11-29T13:10:38.562Z,98427.88
2022-11-29T13:11:48.939Z,98431.38
2022-11-29T13:13:13.002Z,98430.84
2022-11-29T13:14:54.795Z,98434.66
2022-11-29T13:16:31.453Z,98425.25
2022-11-29T13:18:03.742Z,98430.50
2022-11-29T13:19:17.294Z,98429.09
2022-11-29T13:20:25.756Z,98436.19
2022-11-29T13:21:46.413Z,98430.63
2022-11-29T13:23:38.978Z,98429.53
2022-11-29T13:24:50.802Z,98431.38
2022-11-29T13:25:56.836Z,98438.16
2022-11-29T13:27:03.628Z,98435.19
2022-11-29T13:28:26.107Z,98434.44
2022-11-29T13:29:28.788Z,98435.53
2022-11-29T13:30:31.083Z,98433.13
2022-11-29T13:31:33.248Z,98429.75
2022-11-29T13:32:42.126Z,98442.09
2022-11-29T13:34:17.562Z,98443.19
2022-11-29T13:35:30.837Z,98445.16
2022-11-29T13:37:01.508Z,98448.09
2022-11-29T13:38:35.827Z,98447.66
2022-11-29T13:40:00.429Z,98446.25
2022-11-29T13:41:12.792Z,98438.03
2022-11-29T13:42:40.062Z,98447.13
2022-11-29T13:43:51.206Z,98441.88
2022-11-29T13:45:05.904Z,98442.22
2022-11-29T13:46:23.695Z,98445.59
2022-11-29T13:47:25.247Z,98438.03
2022-11-29T13:48:29.862Z,98446.66
2022-11-29T13:49:51.931Z,98448.22
2022-11-29T13:50:53.652Z,98452.03
2022-11-29T13:52:06.342Z,98456.84
2022-11-29T13:53:48.252Z,98444.91
2022-11-29T13:55:28.611Z,98443.41
2022-11-29T13:56:42.591Z,98455.41
2022-11-29T13:58:18.890Z,98447.25
2022-11-29T13:59:29.726Z,98451.69
2022-11-29T14:00:47.758Z,98450.94
2022-11-29T14:01:53.834Z,98453.13
2022-11-29T14:02:57.698Z,98454.66
2022-11-29T14:04:23.602Z,98457.63
2022-11-29T14:05:28.218Z,98453.91
2022-11-29T14:06:37.694Z,98456.19